Time;durP1;ratioP1;P1;durP2;ratioP2;P2;SDS_P1;SDS_P2;PMS_P1;PMS_P2;Temp;Humidity;BMP_temperature;BMP_pressure;BME280_temperature;BME280_humidity;BME280_pressure;Samples;Min_cycle;Max_cycle;Signal;HPM_P1;HPM_P2
2021/01/07 00:00:25;;;;;;;7.53;4.57;;;5.50;96.70;;;;;;5060755;28;20490;-76
2021/01/07 00:02:52;;;;;;;7.03;4.68;;;5.60;96.70;;;;;;5057963;28;20044;-76
2021/01/07 00:05:19;;;;;;;7.70;4.60;;;5.50;96.70;;;;;;5079066;28;20041;-76
2021/01/07 00:07:47;;;;;;;6.78;4.80;;;5.50;96.70;;;;;;5074749;28;20040;-76
2021/01/07 00:10:14;;;;;;;6.57;3.70;;;5.40;96.70;;;;;;5060838;28;20043;-76
2021/01/07 00:12:41;;;;;;;7.40;4.60;;;5.40;96.70;;;;;;5061104;28;20123;-76
2021/01/07 00:15:09;;;;;;;7.78;4.80;;;5.30;96.70;;;;;;5057484;28;20048;-75
2021/01/07 00:17:37;;;;;;;6.93;4.80;;;5.30;96.70;;;;;;5059291;28;20036;-75
2021/01/07 00:20:07;;;;;;;6.72;4.55;;;5.30;96.70;;;;;;5059304;28;20032;-75
2021/01/07 00:22:34;;;;;;;5.97;4.07;;;5.30;96.70;;;;;;5058598;28;20439;-76
2021/01/07 00:25:02;;;;;;;5.53;3.92;;;5.30;96.70;;;;;;5059629;28;20040;-75
2021/01/07 00:27:29;;;;;;;5.75;4.00;;;5.30;96.70;;;;;;5058769;28;20028;-75
2021/01/07 00:29:56;;;;;;;5.80;4.18;;;5.30;96.70;;;;;;5059170;28;20068;-75
2021/01/07 00:32:23;;;;;;;5.75;4.03;;;5.20;96.70;;;;;;5060604;28;20082;-75
2021/01/07 00:34:51;;;;;;;5.43;4.07;;;5.10;96.70;;;;;;5062379;28;20098;-75
2021/01/07 00:37:18;;;;;;;10.25;5.15;;;5.10;96.70;;;;;;5059240;28;20117;-75
2021/01/07 00:39:45;;;;;;;6.88;5.45;;;5.10;96.70;;;;;;5057495;28;20032;-75
2021/01/07 00:42:16;;;;;;;7.75;5.97;;;5.10;96.70;;;;;;5056413;28;20095;-76
2021/01/07 00:44:43;;;;;;;8.93;5.65;;;5.10;96.70;;;;;;5057156;28;20398;-75
2021/01/07 00:47:10;;;;;;;7.97;6.25;;;5.10;96.70;;;;;;5058807;28;20045;-75
2021/01/07 00:49:37;;;;;;;8.02;6.47;;;5.10;96.70;;;;;;5059425;28;20040;-75
2021/01/07 00:52:09;;;;;;;6.90;5.90;;;5.10;96.70;;;;;;5056463;28;20040;-75
2021/01/07 00:54:39;;;;;;;9.20;5.97;;;5.10;96.70;;;;;;5055952;28;20164;-75
2021/01/07 00:57:09;;;;;;;9.88;7.03;;;5.20;96.70;;;;;;5062420;28;20106;-75
2021/01/07 00:59:36;;;;;;;11.00;6.63;;;5.00;96.70;;;;;;5056798;28;20151;-75
2021/01/07 01:02:04;;;;;;;7.88;6.15;;;5.00;96.70;;;;;;5060616;28;20041;-75
2021/01/07 01:04:32;;;;;;;7.68;6.05;;;5.00;96.70;;;;;;5057917;28;20151;-75
2021/01/07 01:06:59;;;;;;;8.20;6.45;;;5.00;96.70;;;;;;5057372;28;20037;-75
2021/01/07 01:09:28;;;;;;;8.05;6.50;;;5.10;96.70;;;;;;5056963;28;20124;-72
2021/01/07 01:11:56;;;;;;;9.60;6.93;;;5.10;96.70;;;;;;5062603;28;20040;-75
2021/01/07 01:14:24;;;;;;;8.05;6.25;;;5.10;96.70;;;;;;5058052;28;20040;-75
2021/01/07 01:16:51;;;;;;;10.02;6.43;;;5.20;96.70;;;;;;5057134;28;20041;-75
2021/01/07 01:19:19;;;;;;;7.57;6.40;;;5.30;96.70;;;;;;5058559;28;20037;-75
2021/01/07 01:21:51;;;;;;;7.45;6.50;;;5.20;96.70;;;;;;5063075;28;20033;-75
2021/01/07 01:24:19;;;;;;;9.07;6.60;;;5.20;96.70;;;;;;5056331;28;20116;-75
2021/01/07 01:26:52;;;;;;;9.50;7.18;;;5.30;96.70;;;;;;5056519;28;20039;-75
2021/01/07 01:29:19;;;;;;;8.30;6.20;;;5.30;96.70;;;;;;5053847;28;20518;-75
2021/01/07 01:31:46;;;;;;;7.28;5.85;;;5.20;96.70;;;;;;5056148;28;20036;-75
2021/01/07 01:34:15;;;;;;;9.73;6.15;;;5.10;96.70;;;;;;5059397;28;20197;-75
2021/01/07 01:36:42;;;;;;;11.10;5.40;;;5.00;96.70;;;;;;5059565;28;20036;-75
2021/01/07 01:39:09;;;;;;;7.78;5.90;;;4.90;96.70;;;;;;5057161;28;20128;-76
2021/01/07 01:41:40;;;;;;;7.43;5.35;;;4.90;96.70;;;;;;5058186;28;20537;-76
2021/01/07 01:44:09;;;;;;;6.57;4.93;;;4.90;96.70;;;;;;5059827;28;20582;-75
2021/01/07 01:46:36;;;;;;;7.68;5.13;;;4.90;96.70;;;;;;5059640;28;20036;-75
2021/01/07 01:49:05;;;;;;;7.78;4.95;;;5.00;96.70;;;;;;5058513;28;20041;-75
2021/01/07 01:51:33;;;;;;;5.13;4.28;;;4.90;96.70;;;;;;5055586;28;20036;-75
2021/01/07 01:54:01;;;;;;;6.53;4.60;;;4.90;96.70;;;;;;5056402;28;20052;-75
2021/01/07 01:56:28;;;;;;;7.13;4.75;;;5.00;96.70;;;;;;5049956;28;20132;-75
2021/01/07 01:58:57;;;;;;;5.47;4.03;;;5.00;96.70;;;;;;5058187;28;20115;-75
2021/01/07 02:01:25;;;;;;;6.13;4.00;;;5.00;96.70;;;;;;5059731;28;20083;-75
2021/01/07 02:03:54;;;;;;;7.03;4.20;;;5.00;96.70;;;;;;5055533;28;20127;-75
2021/01/07 02:06:23;;;;;;;5.75;4.03;;;5.00;96.70;;;;;;5054861;28;20112;-75
2021/01/07 02:08:51;;;;;;;5.47;4.18;;;4.90;96.70;;;;;;5057848;28;20041;-75
2021/01/07 02:11:19;;;;;;;6.18;4.45;;;4.80;96.70;;;;;;5058935;28;20144;-75
2021/01/07 02:13:48;;;;;;;7.65;4.60;;;4.80;96.70;;;;;;5061969;28;20456;-75
2021/01/07 02:16:19;;;;;;;6.03;4.25;;;4.80;96.70;;;;;;5056908;28;20151;-75
2021/01/07 02:18:47;;;;;;;5.63;4.05;;;4.90;96.70;;;;;;5056575;28;20114;-75
2021/01/07 02:21:15;;;;;;;5.60;4.20;;;4.90;96.70;;;;;;5055373;28;20201;-75
2021/01/07 02:23:51;;;;;;;4.20;3.60;;;4.80;96.70;;;;;;5042671;28;20049;-75
2021/01/07 02:26:19;;;;;;;4.93;3.63;;;4.60;96.70;;;;;;5060835;28;20044;-75
2021/01/07 02:28:47;;;;;;;6.40;3.78;;;4.50;96.70;;;;;;5058013;28;20037;-75
2021/01/07 02:31:15;;;;;;;5.80;4.00;;;4.60;96.70;;;;;;5056327;28;20103;-75
2021/01/07 02:33:42;;;;;;;4.47;3.58;;;4.60;96.70;;;;;;5056324;28;20048;-75
2021/01/07 02:36:10;;;;;;;5.45;4.50;;;4.50;96.70;;;;;;5058035;28;20068;-75
2021/01/07 02:38:38;;;;;;;5.03;3.95;;;4.60;96.70;;;;;;5063350;28;20036;-75
2021/01/07 02:41:08;;;;;;;7.65;4.47;;;4.60;96.70;;;;;;5060795;28;20055;-75
2021/01/07 02:43:38;;;;;;;5.05;3.67;;;4.50;96.70;;;;;;5063775;28;20048;-75
2021/01/07 02:46:05;;;;;;;6.00;4.20;;;4.40;96.70;;;;;;5059717;28;20345;-75
2021/01/07 02:48:32;;;;;;;6.38;4.20;;;4.40;96.70;;;;;;5062544;28;20044;-75
2021/01/07 02:50:59;;;;;;;5.97;4.18;;;4.50;96.70;;;;;;5065548;28;20567;-75
2021/01/07 02:53:26;;;;;;;5.60;4.10;;;4.50;96.70;;;;;;5063100;28;20532;-75
2021/01/07 02:55:54;;;;;;;5.05;3.78;;;4.60;96.70;;;;;;5056819;28;20063;-76
2021/01/07 02:58:37;;;;;;;5.22;3.88;;;4.50;96.70;;;;;;5060408;28;20498;-75
2021/01/07 03:01:04;;;;;;;4.93;3.75;;;4.50;96.70;;;;;;5058327;28;20036;-75
2021/01/07 03:03:31;;;;;;;4.53;3.75;;;4.50;96.70;;;;;;5063296;28;20052;-75
2021/01/07 03:05:58;;;;;;;4.85;3.90;;;4.40;96.70;;;;;;5061954;28;20150;-75
2021/01/07 03:08:25;;;;;;;5.07;3.50;;;4.40;96.70;;;;;;5044695;28;20094;-76
2021/01/07 03:10:53;;;;;;;5.53;4.18;;;4.40;96.70;;;;;;5077975;28;20036;-76
2021/01/07 03:13:20;;;;;;;5.22;3.83;;;4.50;96.70;;;;;;5066226;28;20510;-76
2021/01/07 03:15:47;;;;;;;6.18;4.10;;;4.50;96.70;;;;;;5048379;28;20036;-75
2021/01/07 03:18:14;;;;;;;4.55;3.47;;;4.50;96.70;;;;;;5063945;28;20043;-76
2021/01/07 03:20:41;;;;;;;4.68;3.70;;;4.50;96.70;;;;;;5063448;28;20455;-75
2021/01/07 03:23:08;;;;;;;5.75;3.75;;;4.40;96.70;;;;;;5061803;28;20044;-76
2021/01/07 03:25:36;;;;;;;5.65;4.00;;;4.40;96.70;;;;;;5067166;28;20061;-75
2021/01/07 03:28:04;;;;;;;4.97;3.55;;;4.40;96.70;;;;;;5047795;28;20089;-73
2021/01/07 03:30:32;;;;;;;6.53;3.90;;;4.50;96.70;;;;;;5061997;28;20052;-72
2021/01/07 03:33:00;;;;;;;5.22;4.03;;;4.40;96.70;;;;;;5063634;28;20242;-72
2021/01/07 03:35:27;;;;;;;6.95;4.13;;;4.30;96.70;;;;;;5064073;28;20526;-72
2021/01/07 03:37:54;;;;;;;5.80;4.25;;;4.30;96.70;;;;;;5050420;28;20045;-72
2021/01/07 03:40:21;;;;;;;5.82;3.97;;;4.30;96.70;;;;;;5069228;28;20090;-72
2021/01/07 03:42:48;;;;;;;6.45;3.90;;;4.20;96.70;;;;;;5063961;28;20048;-73
2021/01/07 03:45:16;;;;;;;5.43;4.28;;;4.20;96.70;;;;;;5064820;28;20074;-73
2021/01/07 03:47:44;;;;;;;8.20;5.00;;;4.30;96.70;;;;;;5064804;28;20506;-72
2021/01/07 03:50:12;;;;;;;6.68;5.40;;;4.30;96.70;;;;;;5062148;28;20048;-73
2021/01/07 03:52:39;;;;;;;7.47;5.20;;;4.30;96.70;;;;;;5059273;28;20051;-72
2021/01/07 03:55:07;;;;;;;7.30;5.18;;;4.40;96.70;;;;;;5062650;28;20064;-73
2021/01/07 03:57:34;;;;;;;7.13;5.15;;;4.40;96.70;;;;;;5059244;28;20045;-72
2021/01/07 04:00:03;;;;;;;7.70;4.78;;;4.40;96.70;;;;;;5062264;28;20059;-72
2021/01/07 04:02:31;;;;;;;6.03;4.70;;;4.50;96.70;;;;;;5055145;28;20032;-72
2021/01/07 04:04:58;;;;;;;7.25;5.25;;;4.50;96.70;;;;;;5060966;28;20080;-73
2021/01/07 04:07:25;;;;;;;7.70;5.10;;;4.50;96.70;;;;;;5042317;28;20212;-72
2021/01/07 04:09:53;;;;;;;5.35;4.38;;;4.40;96.70;;;;;;5061114;28;20040;-74
2021/01/07 04:12:20;;;;;;;9.02;5.07;;;4.50;96.70;;;;;;5046808;28;20054;-72
2021/01/07 04:15:00;;;;;;;6.70;4.53;;;4.40;96.70;;;;;;5044925;28;20054;-73
2021/01/07 04:17:27;;;;;;;6.28;4.75;;;4.30;96.70;;;;;;5071895;28;20051;-73
2021/01/07 04:19:55;;;;;;;5.85;4.90;;;4.30;96.70;;;;;;5060415;28;20131;-73
2021/01/07 04:22:22;;;;;;;5.82;4.50;;;4.30;96.70;;;;;;5059616;28;20028;-73
2021/01/07 04:24:50;;;;;;;7.28;4.60;;;4.40;96.70;;;;;;5058365;28;20042;-73
2021/01/07 04:27:17;;;;;;;7.15;4.95;;;4.40;96.70;;;;;;5040305;28;20029;-73
2021/01/07 04:29:44;;;;;;;7.15;4.93;;;4.50;96.70;;;;;;5061371;28;20059;-73
2021/01/07 04:32:12;;;;;;;6.85;5.07;;;4.60;96.70;;;;;;5060607;28;20047;-73
2021/01/07 04:34:39;;;;;;;7.45;5.13;;;4.60;96.70;;;;;;5058897;28;20058;-73
2021/01/07 04:37:07;;;;;;;8.45;5.63;;;4.50;96.70;;;;;;5057493;28;20360;-72
2021/01/07 04:39:34;;;;;;;8.00;5.93;;;4.50;96.70;;;;;;5058338;28;20045;-73
2021/01/07 04:42:02;;;;;;;9.73;7.07;;;4.60;96.70;;;;;;5050566;28;20045;-73
2021/01/07 04:44:30;;;;;;;8.43;6.45;;;4.60;96.70;;;;;;5060955;28;20044;-72
2021/01/07 04:46:59;;;;;;;8.77;6.55;;;4.70;96.70;;;;;;5059027;28;20041;-73
2021/01/07 04:49:26;;;;;;;10.82;7.82;;;4.80;96.70;;;;;;5059825;28;20079;-73
2021/01/07 04:51:53;;;;;;;11.88;8.90;;;4.80;96.70;;;;;;5061174;28;20039;-73
2021/01/07 04:54:22;;;;;;;13.27;9.13;;;4.60;96.70;;;;;;5058750;28;20048;-73
2021/01/07 04:56:49;;;;;;;12.27;8.63;;;4.50;96.70;;;;;;5057734;28;20036;-73
2021/01/07 04:59:17;;;;;;;14.63;9.32;;;4.60;96.70;;;;;;5057565;28;20043;-73
2021/01/07 05:01:45;;;;;;;13.40;9.50;;;4.50;96.70;;;;;;5057234;28;20501;-72
2021/01/07 05:04:16;;;;;;;15.95;10.82;;;4.40;96.70;;;;;;5057054;28;20044;-73
2021/01/07 05:06:44;;;;;;;12.63;9.35;;;4.30;96.70;;;;;;5059647;28;20135;-72
2021/01/07 05:09:11;;;;;;;12.60;8.85;;;4.40;96.70;;;;;;5058359;28;20037;-73
2021/01/07 05:11:39;;;;;;;15.18;9.88;;;4.40;96.70;;;;;;5057617;28;20379;-73
2021/01/07 05:14:09;;;;;;;12.60;9.32;;;4.40;96.70;;;;;;5058236;28;20067;-73
2021/01/07 05:16:36;;;;;;;13.68;9.48;;;4.40;96.70;;;;;;5043367;28;20441;-73
2021/01/07 05:19:05;;;;;;;13.85;9.52;;;4.30;96.70;;;;;;5056568;28;20032;-73
2021/01/07 05:21:34;;;;;;;12.88;9.07;;;4.20;96.70;;;;;;5059365;28;20041;-73
2021/01/07 05:24:03;;;;;;;14.13;9.02;;;4.30;96.70;;;;;;5058204;28;20098;-73
2021/01/07 05:26:30;;;;;;;11.20;8.18;;;4.40;96.70;;;;;;5060220;28;20376;-72
2021/01/07 05:28:59;;;;;;;13.05;8.27;;;4.40;96.70;;;;;;5056213;28;20032;-73
2021/01/07 05:31:27;;;;;;;12.73;9.02;;;4.40;96.70;;;;;;5057851;28;20147;-73
2021/01/07 05:33:55;;;;;;;12.38;9.65;;;4.30;96.70;;;;;;5056710;28;20506;-73
2021/01/07 05:36:25;;;;;;;13.48;9.07;;;4.20;96.70;;;;;;5056792;28;20122;-72
2021/01/07 05:38:54;;;;;;;13.32;8.63;;;4.20;96.70;;;;;;5053739;28;20106;-72
2021/01/07 05:41:23;;;;;;;13.55;9.00;;;4.20;96.70;;;;;;5064125;28;20052;-73
2021/01/07 05:43:59;;;;;;;13.60;8.35;;;4.00;96.70;;;;;;5057369;28;20051;-72
2021/01/07 05:46:28;;;;;;;12.45;8.35;;;4.10;96.70;;;;;;5057785;28;20135;-72
2021/01/07 05:48:56;;;;;;;13.35;8.38;;;4.20;96.70;;;;;;5055376;28;20032;-72
2021/01/07 05:51:26;;;;;;;10.75;7.57;;;4.30;96.70;;;;;;5057893;28;20033;-72
2021/01/07 05:53:53;;;;;;;10.50;7.15;;;4.30;96.70;;;;;;5057683;28;20040;-73
2021/01/07 05:56:21;;;;;;;9.73;6.75;;;4.40;96.70;;;;;;5073529;28;20113;-72
2021/01/07 05:58:50;;;;;;;9.77;6.30;;;4.30;96.70;;;;;;5060674;28;20041;-72
2021/01/07 06:01:19;;;;;;;8.77;6.55;;;4.30;96.70;;;;;;5058221;28;20032;-72
2021/01/07 06:03:49;;;;;;;8.30;5.70;;;4.40;96.70;;;;;;5054147;28;20121;-72
2021/01/07 06:06:17;;;;;;;9.68;5.60;;;4.60;96.70;;;;;;5054968;28;20041;-72
2021/01/07 06:08:49;;;;;;;7.70;5.20;;;4.60;96.70;;;;;;5057169;28;20048;-72
2021/01/07 06:11:17;;;;;;;8.95;5.78;;;4.50;96.70;;;;;;5056559;28;20036;-72
2021/01/07 06:13:47;;;;;;;6.93;5.00;;;4.50;96.70;;;;;;5056826;28;20437;-74
2021/01/07 06:16:16;;;;;;;6.20;4.82;;;4.50;96.70;;;;;;5059000;28;20445;-73
2021/01/07 06:18:44;;;;;;;7.43;5.38;;;4.40;96.70;;;;;;5057642;28;20063;-73
2021/01/07 06:21:13;;;;;;;6.38;5.28;;;4.30;96.70;;;;;;5048309;28;20478;-72
2021/01/07 06:23:42;;;;;;;7.47;5.25;;;4.40;96.70;;;;;;5041983;28;20410;-72
2021/01/07 06:26:25;;;;;;;8.30;5.97;;;4.50;96.70;;;;;;5055897;28;20045;-73
2021/01/07 06:28:54;;;;;;;8.38;5.22;;;4.50;96.70;;;;;;5051818;28;20050;-73
2021/01/07 06:31:31;;;;;;;7.22;5.07;;;4.40;96.70;;;;;;5055809;28;20494;-73
2021/01/07 06:33:59;;;;;;;7.63;5.22;;;4.40;96.70;;;;;;5067014;28;20135;-74
2021/01/07 06:36:41;;;;;;;7.63;5.53;;;4.40;96.70;;;;;;5057404;28;20040;-72
2021/01/07 06:39:10;;;;;;;6.47;5.05;;;4.50;96.70;;;;;;5063265;28;20114;-72
2021/01/07 06:41:37;;;;;;;6.80;5.13;;;4.50;96.70;;;;;;5058245;28;20040;-72
2021/01/07 06:44:06;;;;;;;6.97;5.13;;;4.50;96.70;;;;;;5057535;28;20076;-72
2021/01/07 06:46:41;;;;;;;8.20;5.82;;;4.40;96.70;;;;;;5049764;28;20585;-73
2021/01/07 06:49:25;;;;;;;7.35;5.00;;;4.40;96.70;;;;;;5058562;28;20130;-72
2021/01/07 06:51:57;;;;;;;7.95;5.30;;;4.50;96.70;;;;;;5058109;28;20101;-73
2021/01/07 06:54:29;;;;;;;7.95;6.10;;;4.50;96.70;;;;;;5056954;28;20047;-72
2021/01/07 06:56:56;;;;;;;8.93;6.03;;;4.50;96.70;;;;;;5057794;28;20129;-74
2021/01/07 06:59:23;;;;;;;9.77;7.43;;;4.50;96.70;;;;;;5073031;28;20044;-74
2021/01/07 07:01:53;;;;;;;12.63;7.55;;;4.30;96.70;;;;;;5058091;28;20045;-74
2021/01/07 07:04:25;;;;;;;10.32;7.05;;;4.40;96.70;;;;;;5040401;28;20049;-73
2021/01/07 07:06:58;;;;;;;11.18;7.25;;;4.40;96.70;;;;;;5058371;28;20145;-75
2021/01/07 07:09:27;;;;;;;14.52;8.77;;;4.40;96.70;;;;;;5057641;28;20106;-72
2021/01/07 07:11:55;;;;;;;16.55;8.02;;;4.40;96.70;;;;;;5056873;28;20734;-72
2021/01/07 07:14:23;;;;;;;13.32;8.15;;;4.50;96.70;;;;;;5026104;28;20932;-72
2021/01/07 07:16:51;;;;;;;11.00;8.25;;;4.50;96.70;;;;;;5053763;28;20037;-72
2021/01/07 07:19:27;;;;;;;10.18;7.75;;;4.50;96.70;;;;;;5040189;28;20045;-71
2021/01/07 07:21:56;;;;;;;13.05;8.77;;;4.40;96.70;;;;;;5040093;28;20147;-72
2021/01/07 07:24:33;;;;;;;12.13;8.68;;;4.40;96.70;;;;;;5042387;28;20052;-71
2021/01/07 07:27:09;;;;;;;9.98;7.82;;;4.40;96.70;;;;;;5041901;28;20461;-71
2021/01/07 07:29:38;;;;;;;14.18;8.65;;;4.40;96.70;;;;;;5064463;28;20093;-71
2021/01/07 07:32:21;;;;;;;12.25;8.73;;;4.40;96.70;;;;;;5061139;28;20044;-72
2021/01/07 07:34:50;;;;;;;12.63;9.10;;;4.40;96.70;;;;;;5055551;28;20238;-71
2021/01/07 07:37:18;;;;;;;12.25;8.82;;;4.40;96.70;;;;;;5053605;28;20063;-71
2021/01/07 07:39:48;;;;;;;12.48;8.80;;;4.50;96.70;;;;;;5059698;28;20056;-71
2021/01/07 07:42:17;;;;;;;13.32;8.30;;;4.60;96.70;;;;;;5060715;28;20095;-72
2021/01/07 07:44:44;;;;;;;10.60;7.80;;;4.60;96.70;;;;;;5058432;28;20040;-72
2021/01/07 07:47:11;;;;;;;10.93;8.45;;;4.60;96.70;;;;;;5058114;28;20044;-72
2021/01/07 07:49:38;;;;;;;10.65;7.65;;;4.60;96.70;;;;;;5062052;28;20032;-72
2021/01/07 07:52:06;;;;;;;12.10;8.40;;;4.70;96.70;;;;;;5060844;28;20033;-72
2021/01/07 07:54:34;;;;;;;10.15;7.60;;;4.70;96.70;;;;;;5073945;28;20049;-72
2021/01/07 07:57:01;;;;;;;10.57;6.93;;;4.80;96.70;;;;;;5054975;28;20099;-71
2021/01/07 07:59:33;;;;;;;9.88;7.03;;;4.80;96.70;;;;;;5063303;28;20052;-72
2021/01/07 08:02:00;;;;;;;11.88;8.40;;;4.70;96.70;;;;;;5058593;28;20045;-72
2021/01/07 08:04:28;;;;;;;11.02;7.60;;;4.80;96.70;;;;;;5062446;28;20041;-72
2021/01/07 08:06:55;;;;;;;11.63;8.35;;;4.80;96.70;;;;;;5065577;28;20050;-71
2021/01/07 08:09:25;;;;;;;12.02;8.23;;;4.80;96.70;;;;;;5058878;28;20402;-72
2021/01/07 08:11:53;;;;;;;11.80;8.00;;;4.90;96.70;;;;;;5060310;28;20444;-72
2021/01/07 08:14:22;;;;;;;14.10;8.68;;;4.90;96.70;;;;;;5055832;28;20766;-72
2021/01/07 08:16:54;;;;;;;12.77;8.02;;;5.00;96.70;;;;;;5061276;28;20039;-72
2021/01/07 08:19:23;;;;;;;12.15;7.63;;;5.00;96.70;;;;;;5061597;28;20072;-71
2021/01/07 08:21:52;;;;;;;14.82;8.60;;;5.00;96.70;;;;;;5057879;28;20047;-72
2021/01/07 08:24:21;;;;;;;10.40;7.45;;;5.00;96.70;;;;;;5059910;28;20051;-72
2021/01/07 08:27:05;;;;;;;11.60;8.40;;;5.10;96.70;;;;;;5057815;28;20060;-72
2021/01/07 08:29:36;;;;;;;15.07;10.00;;;5.10;96.70;;;;;;5059558;28;20040;-71
2021/01/07 08:32:06;;;;;;;12.60;8.93;;;5.20;96.70;;;;;;5063708;28;20044;-72
2021/01/07 08:34:34;;;;;;;12.57;8.50;;;5.20;96.70;;;;;;5061034;28;20053;-71
2021/01/07 08:37:10;;;;;;;15.32;9.02;;;5.20;96.70;;;;;;5067713;28;20045;-73
2021/01/07 08:39:38;;;;;;;13.85;9.40;;;5.30;96.70;;;;;;5057003;28;20523;-73
2021/01/07 08:42:06;;;;;;;11.70;8.40;;;5.30;96.70;;;;;;5042673;28;20444;-72
2021/01/07 08:44:34;;;;;;;11.88;7.80;;;5.30;96.70;;;;;;5061965;28;20037;-73
2021/01/07 08:47:02;;;;;;;12.52;8.02;;;5.40;96.70;;;;;;5055575;28;20612;-72
2021/01/07 08:49:30;;;;;;;12.40;8.45;;;5.50;96.70;;;;;;5058445;28;20051;-72
2021/01/07 08:51:59;;;;;;;11.70;8.65;;;5.50;96.70;;;;;;5051337;28;20032;-72
2021/01/07 08:54:27;;;;;;;11.05;7.70;;;5.60;96.70;;;;;;5055906;28;20045;-73
2021/01/07 08:56:56;;;;;;;10.82;8.07;;;5.60;96.70;;;;;;5062917;28;20580;-72
2021/01/07 08:59:26;;;;;;;9.95;7.70;;;5.60;96.70;;;;;;5056265;28;20048;-72
2021/01/07 09:01:55;;;;;;;11.05;8.27;;;5.60;96.70;;;;;;5056933;28;20517;-72
2021/01/07 09:04:26;;;;;;;9.65;6.80;;;5.70;96.70;;;;;;5057825;28;20528;-72
2021/01/07 09:06:54;;;;;;;13.10;8.90;;;5.70;96.70;;;;;;5057231;28;20043;-71
2021/01/07 09:09:21;;;;;;;9.63;7.25;;;5.70;96.70;;;;;;5059128;28;20521;-71
2021/01/07 09:11:48;;;;;;;16.05;7.60;;;5.70;96.70;;;;;;5047281;28;20144;-72
2021/01/07 09:14:15;;;;;;;10.52;7.57;;;5.80;96.70;;;;;;5039116;28;20041;-72
2021/01/07 09:16:58;;;;;;;10.00;7.13;;;5.90;96.70;;;;;;5058585;28;20043;-71
2021/01/07 09:19:25;;;;;;;9.73;7.07;;;6.00;96.70;;;;;;5044475;28;20768;-71
2021/01/07 09:22:00;;;;;;;10.93;7.05;;;6.10;96.70;;;;;;5057223;28;20048;-72
2021/01/07 09:24:36;;;;;;;11.77;8.00;;;6.20;96.70;;;;;;5056515;28;20048;-73
2021/01/07 09:27:07;;;;;;;9.88;7.00;;;6.30;96.70;;;;;;5072140;28;20299;-73
2021/01/07 09:29:35;;;;;;;11.88;7.97;;;6.30;96.70;;;;;;5056335;28;20035;-73
2021/01/07 09:32:04;;;;;;;11.55;8.00;;;6.30;96.70;;;;;;5057301;28;21078;-72
2021/01/07 09:34:32;;;;;;;9.98;7.63;;;6.30;96.70;;;;;;5052593;28;20056;-73
2021/01/07 09:37:09;;;;;;;10.68;7.30;;;6.40;96.70;;;;;;5060098;28;20040;-72
2021/01/07 09:39:36;;;;;;;12.32;7.97;;;6.40;96.70;;;;;;5058374;28;20102;-71
2021/01/07 09:42:05;;;;;;;11.93;8.13;;;6.50;96.70;;;;;;5060165;28;20040;-72
2021/01/07 09:44:33;;;;;;;10.88;8.52;;;6.40;96.70;;;;;;5058413;28;20563;-71
2021/01/07 09:47:02;;;;;;;11.00;8.27;;;6.50;96.70;;;;;;5060220;28;20547;-72
2021/01/07 09:49:35;;;;;;;11.70;8.55;;;6.60;96.70;;;;;;5055376;28;20439;-72
2021/01/07 09:52:03;;;;;;;11.52;8.35;;;6.90;96.70;;;;;;5055583;28;20098;-72
2021/01/07 09:54:32;;;;;;;11.73;7.85;;;7.00;96.70;;;;;;5055975;28;20495;-72
2021/01/07 09:57:01;;;;;;;9.93;7.38;;;7.00;96.70;;;;;;5057682;28;20055;-72
2021/01/07 09:59:29;;;;;;;10.73;7.25;;;7.00;96.70;;;;;;5058402;28;20072;-72
2021/01/07 10:01:57;;;;;;;9.98;7.32;;;7.00;96.70;;;;;;5057831;28;20240;-72
2021/01/07 10:04:24;;;;;;;13.68;7.28;;;6.90;96.70;;;;;;5056150;28;20133;-71
2021/01/07 10:06:53;;;;;;;11.15;7.35;;;6.90;96.70;;;;;;5041735;28;20098;-71
2021/01/07 10:09:20;;;;;;;9.48;7.03;;;6.90;96.70;;;;;;5059374;28;20035;-72
2021/01/07 10:11:51;;;;;;;10.95;7.18;;;7.00;96.70;;;;;;5061477;28;20544;-72
2021/01/07 10:14:19;;;;;;;10.20;6.90;;;6.90;96.70;;;;;;5063599;28;20044;-72
2021/01/07 10:16:50;;;;;;;9.77;6.78;;;6.90;96.70;;;;;;5055474;28;20037;-71
2021/01/07 10:19:18;;;;;;;9.30;6.88;;;6.90;96.70;;;;;;5056995;28;20585;-71
2021/01/07 10:21:48;;;;;;;9.52;6.75;;;6.90;96.70;;;;;;5057145;28;20087;-71
2021/01/07 10:24:16;;;;;;;10.45;7.20;;;7.00;96.70;;;;;;5056847;28;20124;-71
2021/01/07 10:26:57;;;;;;;9.32;6.93;;;7.00;96.70;;;;;;5052702;28;20169;-72
2021/01/07 10:29:27;;;;;;;11.18;7.07;;;7.10;96.70;;;;;;5059676;28;20512;-72
2021/01/07 10:31:55;;;;;;;9.88;7.35;;;7.10;96.70;;;;;;5057003;28;20044;-72
2021/01/07 10:34:23;;;;;;;12.15;7.80;;;7.20;96.70;;;;;;5059063;28;20053;-72
2021/01/07 10:36:51;;;;;;;11.95;7.55;;;7.30;96.70;;;;;;5058205;28;20036;-71
2021/01/07 10:39:23;;;;;;;11.15;8.25;;;7.40;96.70;;;;;;5058441;28;20044;-73
2021/01/07 10:41:54;;;;;;;10.05;7.13;;;7.50;96.70;;;;;;5058178;28;20040;-72
2021/01/07 10:44:22;;;;;;;11.07;7.00;;;7.50;96.70;;;;;;5039758;28;20071;-72
2021/01/07 10:46:56;;;;;;;10.20;7.18;;;7.50;96.70;;;;;;5055100;28;20539;-71
2021/01/07 10:49:26;;;;;;;10.05;7.57;;;7.60;96.70;;;;;;5056184;28;20117;-72
2021/01/07 10:52:26;;;;;;;9.48;7.20;;;7.70;96.70;;;;;;5053848;28;20117;-72
2021/01/07 10:55:09;;;;;;;8.25;6.57;;;7.70;96.70;;;;;;5057398;28;20387;-72
2021/01/07 10:58:05;;;;;;;11.77;7.03;;;7.70;96.70;;;;;;5059551;28;20041;-72
2021/01/07 11:00:44;;;;;;;11.53;7.53;;;7.80;96.70;;;;;;5055954;28;20269;-72
2021/01/07 11:03:31;;;;;;;8.00;6.18;;;7.90;96.70;;;;;;5057221;28;20048;-72
2021/01/07 11:06:01;;;;;;;10.88;5.47;;;8.10;96.70;;;;;;5055731;28;20525;-72
2021/01/07 11:08:34;;;;;;;6.95;5.07;;;8.20;96.70;;;;;;5062417;28;20048;-73
2021/01/07 11:11:07;;;;;;;8.52;5.28;;;8.30;96.70;;;;;;5061607;28;20036;-72
2021/01/07 11:13:41;;;;;;;8.48;5.82;;;8.40;96.70;;;;;;5064391;28;20046;-73
2021/01/07 11:16:14;;;;;;;7.65;5.30;;;8.40;96.70;;;;;;5058750;28;20044;-72
2021/01/07 11:18:51;;;;;;;7.72;5.35;;;8.30;96.70;;;;;;5059959;28;20121;-71
2021/01/07 11:21:41;;;;;;;8.20;5.28;;;8.30;96.70;;;;;;5059284;28;20127;-73
2021/01/07 11:24:09;;;;;;;6.90;4.68;;;8.30;96.70;;;;;;5026051;28;20128;-72
2021/01/07 11:26:39;;;;;;;7.93;5.28;;;8.40;96.70;;;;;;5020251;28;20045;-73
2021/01/07 11:29:07;;;;;;;6.90;4.78;;;8.40;96.70;;;;;;5021686;28;20126;-72
2021/01/07 11:31:52;;;;;;;7.85;5.30;;;8.50;96.70;;;;;;5035600;28;20083;-72
2021/01/07 11:34:21;;;;;;;8.00;4.90;;;8.60;96.70;;;;;;5034854;28;20057;-72
2021/01/07 11:36:53;;;;;;;7.38;4.80;;;8.70;96.70;;;;;;5022801;28;20057;-72
2021/01/07 11:39:25;;;;;;;7.90;5.15;;;8.70;96.70;;;;;;5036289;28;20144;-72
2021/01/07 11:42:06;;;;;;;6.57;4.18;;;8.80;96.70;;;;;;5048149;28;20631;-72
2021/01/07 11:44:41;;;;;;;10.57;6.63;;;8.70;96.70;;;;;;5060330;28;20039;-74
2021/01/07 11:47:11;;;;;;;9.48;6.53;;;8.70;96.70;;;;;;5062871;28;20086;-72
2021/01/07 11:49:40;;;;;;;12.65;6.68;;;8.60;96.70;;;;;;5059850;28;20117;-72
2021/01/07 11:52:09;;;;;;;8.70;6.07;;;8.50;96.70;;;;;;5060236;28;20131;-73
2021/01/07 11:54:39;;;;;;;11.43;6.57;;;8.60;96.70;;;;;;5058727;28;20037;-72
2021/01/07 11:57:08;;;;;;;8.98;6.80;;;8.70;96.70;;;;;;5058603;28;20225;-72
2021/01/07 11:59:37;;;;;;;10.18;6.90;;;8.70;96.70;;;;;;5061267;28;20280;-72
2021/01/07 12:02:08;;;;;;;8.60;6.45;;;8.60;96.70;;;;;;5056063;28;20072;-72
2021/01/07 12:04:35;;;;;;;10.40;6.80;;;8.60;96.70;;;;;;5060751;28;20043;-71
2021/01/07 12:07:09;;;;;;;9.63;6.90;;;8.60;96.70;;;;;;5061139;28;20384;-71
2021/01/07 12:09:41;;;;;;;10.38;6.55;;;8.70;96.70;;;;;;5061298;28;20071;-72
2021/01/07 12:12:14;;;;;;;11.40;8.48;;;8.70;96.70;;;;;;5044679;28;20114;-73
2021/01/07 12:14:46;;;;;;;9.18;6.80;;;8.90;96.70;;;;;;5057927;28;20033;-72
2021/01/07 12:17:14;;;;;;;11.77;8.45;;;8.90;96.70;;;;;;5071162;28;20519;-72
2021/01/07 12:19:42;;;;;;;8.80;6.32;;;9.00;96.70;;;;;;5059418;28;20037;-72
2021/01/07 12:22:15;;;;;;;9.13;6.28;;;9.00;96.70;;;;;;5062499;28;20036;-73
2021/01/07 12:25:02;;;;;;;8.13;6.22;;;9.00;96.70;;;;;;5062636;28;20121;-72
2021/01/07 12:27:30;;;;;;;7.78;5.45;;;9.00;96.70;;;;;;5058167;28;20040;-72
2021/01/07 12:29:58;;;;;;;8.82;6.07;;;9.00;96.70;;;;;;5062874;28;20036;-72
2021/01/07 12:32:29;;;;;;;10.45;6.40;;;9.00;96.70;;;;;;5058364;28;20129;-72
2021/01/07 12:35:05;;;;;;;11.15;7.10;;;9.00;96.70;;;;;;5059369;28;20052;-72
2021/01/07 12:37:42;;;;;;;9.63;6.30;;;9.00;96.70;;;;;;5057476;28;20506;-72
2021/01/07 12:40:12;;;;;;;11.15;8.02;;;9.00;96.70;;;;;;5060665;28;20143;-71
2021/01/07 12:42:44;;;;;;;12.82;8.00;;;9.00;96.70;;;;;;5058186;28;20455;-72
2021/01/07 12:45:12;;;;;;;8.30;6.13;;;9.00;96.70;;;;;;5057592;28;20105;-72
2021/01/07 12:47:39;;;;;;;10.48;7.32;;;9.00;96.70;;;;;;5058500;28;20037;-72
2021/01/07 12:50:08;;;;;;;9.00;6.50;;;9.00;96.70;;;;;;5059404;28;20127;-72
2021/01/07 12:52:36;;;;;;;8.10;5.97;;;9.10;96.70;;;;;;5059345;28;20506;-72
2021/01/07 12:55:06;;;;;;;9.23;6.43;;;9.20;96.70;;;;;;5060576;28;20128;-72
2021/01/07 12:57:55;;;;;;;11.20;6.68;;;9.30;96.70;;;;;;5058244;28;20098;-72
2021/01/07 13:00:23;;;;;;;8.90;6.28;;;9.40;96.70;;;;;;5058657;28;20064;-72
2021/01/07 13:02:57;;;;;;;8.68;6.43;;;9.40;96.70;;;;;;5058091;28;20118;-72
2021/01/07 13:05:30;;;;;;;10.80;5.80;;;9.40;96.70;;;;;;5046723;28;20036;-72